Time;durP1;ratioP1;P1;durP2;ratioP2;P2;SDS_P1;SDS_P2;PMS_P1;PMS_P2;Temp;Humidity;BMP_temperature;BMP_pressure;BME280_temperature;BME280_humidity;BME280_pressure;Samples;Min_cycle;Max_cycle;Signal;HPM_P1;HPM_P2
2022/08/27 00:02:24;;;;;;;7.25;2.58;;;;;;;15.79;100.00;101566.25;5210820;28;20365;-69
2022/08/27 00:04:55;;;;;;;5.80;2.30;;;;;;;15.71;100.00;101568.75;5209512;28;20036;-69
2022/08/27 00:07:27;;;;;;;5.82;2.33;;;;;;;15.76;100.00;101569.25;5212026;28;20038;-69
2022/08/27 00:09:59;;;;;;;7.65;2.60;;;;;;;15.74;100.00;101567.66;5210401;28;20045;-69
2022/08/27 00:12:30;;;;;;;8.13;2.88;;;;;;;15.58;100.00;101555.50;5210692;28;20025;-69
2022/08/27 00:15:03;;;;;;;8.30;2.53;;;;;;;15.50;100.00;101563.38;5212294;28;20057;-69
2022/08/27 00:17:35;;;;;;;7.93;2.50;;;;;;;15.48;100.00;101560.81;5212853;28;20033;-69
2022/08/27 00:20:07;;;;;;;8.55;2.78;;;;;;;15.38;100.00;101559.91;5211200;28;20500;-69
2022/08/27 00:22:38;;;;;;;8.85;3.28;;;;;;;15.39;100.00;101558.06;5203493;28;20036;-69
2022/08/27 00:25:11;;;;;;;6.53;2.90;;;;;;;15.45;100.00;101549.47;5212094;28;20025;-69
2022/08/27 00:27:42;;;;;;;6.22;2.70;;;;;;;15.41;100.00;101556.94;5205858;28;20041;-69
2022/08/27 00:30:16;;;;;;;6.05;2.85;;;;;;;15.24;100.00;101555.69;5204387;28;20030;-69
2022/08/27 00:32:48;;;;;;;;;;;;;;;15.36;100.00;101553.81;5210613;28;20058;-70
2022/08/27 00:35:19;;;;;;;5.28;2.63;;;;;;;15.35;100.00;101541.34;5209045;28;19917;-69
2022/08/27 00:37:51;;;;;;;6.75;3.08;;;;;;;15.19;100.00;101547.19;5199709;28;20037;-69
2022/08/27 00:40:22;;;;;;;6.28;3.00;;;;;;;15.06;100.00;101552.72;5210672;28;20250;-69
2022/08/27 00:42:53;;;;;;;6.85;3.00;;;;;;;15.10;100.00;101553.34;5210259;28;20484;-69
2022/08/27 00:45:25;;;;;;;12.02;3.38;;;;;;;14.94;100.00;101553.78;5203599;28;20488;-69
2022/08/27 00:47:59;;;;;;;8.45;3.22;;;;;;;14.85;100.00;101554.53;5239019;28;20655;-70
2022/08/27 00:50:39;;;;;;;7.03;3.13;;;;;;;14.78;100.00;101554.19;5222185;28;20485;-69
2022/08/27 00:53:15;;;;;;;7.15;3.17;;;;;;;14.89;100.00;101540.72;5207924;28;20037;-69
2022/08/27 00:55:53;;;;;;;7.40;3.30;;;;;;;14.76;100.00;101552.63;5208443;28;20407;-70
2022/08/27 00:58:29;;;;;;;5.95;3.22;;;;;;;14.68;100.00;101558.63;5209672;28;20102;-69
2022/08/27 01:01:03;;;;;;;6.80;3.03;;;;;;;14.70;100.00;101556.66;5209854;28;20034;-69
2022/08/27 01:03:35;;;;;;;8.25;3.63;;;;;;;14.60;100.00;101559.25;5211280;28;20491;-69
2022/08/27 01:06:10;;;;;;;6.70;3.60;;;;;;;14.54;100.00;101557.03;5206578;28;20105;-69
2022/08/27 01:08:49;;;;;;;7.68;3.60;;;;;;;14.54;100.00;101556.19;5208034;28;20037;-69
2022/08/27 01:11:21;;;;;;;10.50;3.10;;;;;;;14.46;100.00;101551.47;5210830;28;20029;-69
2022/08/27 01:13:52;;;;;;;7.28;3.40;;;;;;;14.41;100.00;101550.97;5210217;28;20078;-69
2022/08/27 01:16:27;;;;;;;8.52;3.67;;;;;;;14.35;100.00;101556.84;5212438;28;20014;-69
2022/08/27 01:18:59;;;;;;;7.05;4.20;;;;;;;14.36;100.00;101547.78;5207997;28;20478;-69
2022/08/27 01:21:40;;;;;;;10.77;3.78;;;;;;;14.44;100.00;101545.31;5210643;28;20037;-69
2022/08/27 01:24:23;;;;;;;8.40;4.07;;;;;;;14.27;100.00;101550.25;5209388;28;20116;-69
2022/08/27 01:26:56;;;;;;;7.45;3.67;;;;;;;14.22;100.00;101540.88;5210400;28;20026;-69
2022/08/27 01:29:29;;;;;;;8.70;4.13;;;;;;;14.22;100.00;101548.91;5207817;28;20056;-69
2022/08/27 01:32:16;;;;;;;8.68;3.55;;;;;;;14.17;100.00;101541.25;5209378;28;20032;-69
2022/08/27 01:34:48;;;;;;;10.30;4.43;;;;;;;14.11;100.00;101545.28;5195385;28;20030;-70
2022/08/27 01:37:21;;;;;;;12.80;4.15;;;;;;;14.15;100.00;101540.50;5205066;28;20378;-69
2022/08/27 01:39:55;;;;;;;8.75;4.03;;;;;;;14.12;100.00;101546.97;5210391;28;20118;-69
2022/08/27 01:42:30;;;;;;;11.02;4.57;;;;;;;14.14;100.00;101546.84;5208825;28;20295;-69
2022/08/27 01:45:09;;;;;;;9.93;4.53;;;;;;;14.09;100.00;101547.25;5209482;28;20065;-69
2022/08/27 01:47:41;;;;;;;9.88;4.35;;;;;;;14.00;100.00;101536.34;5210732;28;20528;-69
2022/08/27 01:50:24;;;;;;;8.82;4.60;;;;;;;14.10;100.00;101540.88;5209212;28;20054;-69
2022/08/27 01:53:00;;;;;;;9.80;4.33;;;;;;;13.98;100.00;101533.81;5205968;28;20055;-69
2022/08/27 01:55:31;;;;;;;9.40;5.00;;;;;;;14.10;100.00;101540.03;5209633;28;20250;-70
2022/08/27 01:58:03;;;;;;;8.57;4.28;;;;;;;13.90;100.00;101531.75;5208549;28;20428;-69
2022/08/27 02:00:38;;;;;;;6.80;4.22;;;;;;;13.92;100.00;101545.03;5208608;28;20042;-69
2022/08/27 02:03:10;;;;;;;6.97;4.07;;;;;;;13.99;100.00;101537.34;5210014;28;20487;-69
2022/08/27 02:05:42;;;;;;;8.93;4.50;;;;;;;13.93;100.00;101531.50;5214155;28;20098;-69
2022/08/27 02:08:16;;;;;;;8.23;4.50;;;;;;;13.86;100.00;101541.00;5210862;28;20041;-69
2022/08/27 02:10:48;;;;;;;8.95;4.75;;;;;;;13.79;100.00;101525.50;5212023;28;20022;-69
2022/08/27 02:13:19;;;;;;;8.18;4.65;;;;;;;13.77;100.00;101531.03;5229418;28;20052;-69
2022/08/27 02:15:51;;;;;;;7.70;4.72;;;;;;;13.76;100.00;101533.81;5213648;28;20018;-69
2022/08/27 02:18:22;;;;;;;8.38;4.55;;;;;;;13.69;100.00;101533.44;5213360;28;20026;-69
2022/08/27 02:20:53;;;;;;;9.07;4.63;;;;;;;13.66;100.00;101526.50;5211521;28;20033;-69
2022/08/27 02:23:25;;;;;;;9.65;4.80;;;;;;;13.62;100.00;101532.22;5212242;28;20030;-69
2022/08/27 02:25:56;;;;;;;10.95;4.80;;;;;;;13.72;100.00;101522.47;5214265;28;20030;-69
2022/08/27 02:28:27;;;;;;;11.23;5.47;;;;;;;13.65;100.00;101522.13;5211148;28;20074;-69
2022/08/27 02:30:59;;;;;;;9.80;5.35;;;;;;;13.59;100.00;101524.41;5205896;28;20076;-69
2022/08/27 02:33:32;;;;;;;7.80;4.85;;;;;;;13.49;100.00;101511.72;5213942;28;20030;-69
2022/08/27 02:36:03;;;;;;;12.85;4.57;;;;;;;13.57;100.00;101512.97;5214079;28;20034;-69
2022/08/27 02:38:35;;;;;;;11.60;4.90;;;;;;;13.52;100.00;101508.81;5212588;28;20022;-69
2022/08/27 02:41:06;;;;;;;8.73;5.47;;;;;;;13.62;100.00;101513.47;5207870;28;20038;-69
2022/08/27 02:43:38;;;;;;;11.40;5.22;;;;;;;13.43;100.00;101514.88;5207924;28;20021;-69
2022/08/27 02:46:10;;;;;;;8.27;5.72;;;;;;;13.46;100.00;101517.34;5212520;28;20056;-69
2022/08/27 02:48:42;;;;;;;12.45;6.00;;;;;;;13.56;100.00;101520.16;5211421;28;20102;-69
2022/08/27 02:51:14;;;;;;;10.45;5.60;;;;;;;13.51;100.00;101520.50;5213632;28;20113;-69
2022/08/27 02:53:45;;;;;;;8.95;5.47;;;;;;;13.51;100.00;101520.50;5209774;28;20032;-69
2022/08/27 02:56:17;;;;;;;11.27;5.45;;;;;;;13.47;100.00;101513.66;5213933;28;20101;-69
2022/08/27 02:58:48;;;;;;;12.90;5.68;;;;;;;13.42;100.00;101518.53;5211473;28;20022;-69
2022/08/27 03:01:20;;;;;;;7.82;5.35;;;;;;;13.50;100.00;101524.16;5215644;28;20149;-69
2022/08/27 03:03:51;;;;;;;10.23;5.70;;;;;;;13.50;100.00;101513.44;5210861;28;20045;-69
2022/08/27 03:06:22;;;;;;;10.52;6.05;;;;;;;13.49;100.00;101526.97;5207102;28;20026;-69
2022/08/27 03:08:54;;;;;;;11.48;5.90;;;;;;;13.49;100.00;101529.63;5209146;28;20017;-68
2022/08/27 03:11:25;;;;;;;11.52;6.22;;;;;;;13.55;100.00;101520.28;5212674;28;20495;-69
2022/08/27 03:13:57;;;;;;;12.02;6.68;;;;;;;13.51;100.00;101516.97;5211246;28;20518;-69
2022/08/27 03:16:29;;;;;;;7.95;5.68;;;;;;;13.52;100.00;101513.34;5205809;28;20367;-69
2022/08/27 03:19:00;;;;;;;9.77;5.97;;;;;;;13.50;100.00;101524.16;5211578;28;20021;-69
2022/08/27 03:21:33;;;;;;;10.57;5.80;;;;;;;13.55;100.00;101514.91;5211795;28;20080;-69
2022/08/27 03:24:05;;;;;;;11.88;6.18;;;;;;;13.68;100.00;101523.69;5212060;28;20538;-70
2022/08/27 03:26:36;;;;;;;10.52;6.30;;;;;;;13.55;100.00;101521.13;5216495;28;20030;-69
2022/08/27 03:29:08;;;;;;;12.60;6.28;;;;;;;13.55;100.00;101520.28;5212060;28;20030;-69
2022/08/27 03:31:39;;;;;;;12.85;6.47;;;;;;;13.58;100.00;101528.09;5212195;28;20033;-69
2022/08/27 03:34:10;;;;;;;12.07;6.60;;;;;;;13.60;100.00;101516.25;5212172;28;20057;-69
2022/08/27 03:36:42;;;;;;;10.82;6.45;;;;;;;13.69;100.00;101523.56;5213252;28;20029;-69
2022/08/27 03:39:13;;;;;;;9.60;6.18;;;;;;;13.60;100.00;101516.25;5205989;28;20036;-69
2022/08/27 03:41:45;;;;;;;11.43;6.28;;;;;;;13.61;100.00;101515.25;5212328;28;20034;-69
2022/08/27 03:44:16;;;;;;;12.02;6.35;;;;;;;13.52;100.00;101527.59;5210105;28;20024;-69
2022/08/27 03:46:49;;;;;;;11.75;6.20;;;;;;;13.49;100.00;101533.16;5212846;28;20040;-69
2022/08/27 03:49:21;;;;;;;10.77;6.10;;;;;;;13.46;100.00;101528.06;5210447;28;20500;-69
2022/08/27 03:51:53;;;;;;;9.43;6.50;;;;;;;13.58;100.00;101526.25;5233460;28;20497;-69
2022/08/27 03:54:24;;;;;;;9.82;6.75;;;;;;;13.53;100.00;101531.09;5210136;28;20025;-69
2022/08/27 03:56:55;;;;;;;10.93;7.03;;;;;;;13.50;100.00;101526.84;5211967;28;20026;-69
2022/08/27 03:59:27;;;;;;;11.75;6.47;;;;;;;13.50;100.00;101525.97;5210206;28;20468;-69
2022/08/27 04:01:59;;;;;;;9.63;6.03;;;;;;;13.53;100.00;101521.22;5213253;28;20041;-69
2022/08/27 04:04:30;;;;;;;10.45;6.47;;;;;;;13.61;100.00;101519.78;5207792;28;20061;-69
2022/08/27 04:07:02;;;;;;;11.32;6.32;;;;;;;13.63;100.00;101520.50;5210751;28;20054;-69
2022/08/27 04:09:33;;;;;;;10.65;6.75;;;;;;;13.63;100.00;101532.09;5210848;28;20386;-69
2022/08/27 04:12:04;;;;;;;8.85;6.80;;;;;;;13.71;100.00;101526.13;5213176;28;20056;-69
2022/08/27 04:14:36;;;;;;;8.95;6.18;;;;;;;13.62;100.00;101524.19;5216382;28;20025;-69
2022/08/27 04:17:07;;;;;;;9.07;7.05;;;;;;;13.65;100.00;101526.59;5209253;28;20040;-69
2022/08/27 04:19:38;;;;;;;10.73;7.28;;;;;;;13.71;100.00;101527.00;5211341;28;20044;-69
2022/08/27 04:22:09;;;;;;;10.50;6.68;;;;;;;13.73;100.00;101517.00;5212694;28;20053;-69
2022/08/27 04:24:41;;;;;;;11.52;6.45;;;;;;;13.64;100.00;101514.19;5211016;28;20029;-69
2022/08/27 04:27:14;;;;;;;8.75;6.70;;;;;;;13.59;100.00;101519.06;5210795;28;20078;-69
2022/08/27 04:29:46;;;;;;;9.15;6.40;;;;;;;13.62;100.00;101518.81;5204181;28;20034;-69
2022/08/27 04:32:18;;;;;;;12.43;6.53;;;;;;;13.68;100.00;101519.19;5235873;28;20022;-69
2022/08/27 04:34:53;;;;;;;10.18;6.72;;;;;;;13.59;100.00;101521.72;5211208;28;20404;-69
2022/08/27 04:37:25;;;;;;;9.40;6.43;;;;;;;13.47;100.00;101521.72;5210073;28;20026;-69
2022/08/27 04:39:56;;;;;;;12.35;6.32;;;;;;;13.45;100.00;101528.19;5201228;28;20374;-69
2022/08/27 04:42:28;;;;;;;10.10;7.38;;;;;;;13.44;100.00;101521.97;5211635;28;20049;-70
2022/08/27 04:44:59;;;;;;;12.70;6.55;;;;;;;13.42;100.00;101528.41;5211021;28;20026;-69
2022/08/27 04:47:30;;;;;;;12.40;6.68;;;;;;;13.45;100.00;101537.06;5206523;28;20050;-69
2022/08/27 04:50:02;;;;;;;13.70;6.85;;;;;;;13.48;100.00;101533.28;5212011;28;20382;-69
2022/08/27 04:52:33;;;;;;;12.32;7.20;;;;;;;13.60;100.00;101529.66;5212124;28;20215;-69
2022/08/27 04:55:05;;;;;;;12.48;6.47;;;;;;;13.57;100.00;101535.25;5212221;28;20025;-69
2022/08/27 04:57:36;;;;;;;11.27;6.80;;;;;;;13.62;100.00;101527.72;5206155;28;20116;-69
2022/08/27 05:00:08;;;;;;;9.70;6.47;;;;;;;13.62;100.00;101538.44;5211660;28;20497;-69
2022/08/27 05:02:39;;;;;;;10.23;6.93;;;;;;;13.64;100.00;101532.97;5203241;28;20451;-69
2022/08/27 05:05:11;;;;;;;10.02;6.95;;;;;;;13.68;100.00;101532.59;5211364;28;20455;-69
2022/08/27 05:07:42;;;;;;;11.80;7.00;;;;;;;13.68;100.00;101532.59;5207530;28;20030;-69
2022/08/27 05:10:13;;;;;;;11.07;7.18;;;;;;;13.76;100.00;101537.34;5209826;28;20132;-69
2022/08/27 05:12:44;;;;;;;11.10;7.70;;;;;;;13.75;100.00;101538.34;5210903;28;20060;-69
2022/08/27 05:15:16;;;;;;;12.85;7.57;;;;;;;13.83;100.00;101530.53;5212422;28;20021;-69
2022/08/27 05:17:47;;;;;;;12.00;7.63;;;;;;;13.90;100.00;101537.13;5205479;28;20057;-69
2022/08/27 05:20:18;;;;;;;11.52;7.10;;;;;;;13.90;100.00;101537.13;5209003;28;20120;-69
2022/08/27 05:22:49;;;;;;;13.60;7.75;;;;;;;13.97;100.00;101534.78;5207244;28;20018;-69
2022/08/27 05:25:22;;;;;;;15.00;7.50;;;;;;;14.01;100.00;101543.44;5201995;28;20041;-69
2022/08/27 05:27:53;;;;;;;12.25;7.82;;;;;;;14.03;100.00;101533.44;5211082;28;20026;-69
2022/08/27 05:30:25;;;;;;;12.80;7.90;;;;;;;14.06;100.00;101539.41;5209015;28;20029;-69
2022/08/27 05:32:56;;;;;;;10.65;7.70;;;;;;;14.08;100.00;101536.63;5209179;28;20079;-69
2022/08/27 05:35:27;;;;;;;12.40;7.07;;;;;;;14.12;100.00;101546.97;5212879;28;20032;-69
2022/08/27 05:38:01;;;;;;;14.52;8.15;;;;;;;14.19;100.00;101541.09;5208922;28;20034;-69
2022/08/27 05:40:33;;;;;;;9.82;7.28;;;;;;;14.21;100.00;101540.03;5199757;28;20037;-69
2022/08/27 05:43:04;;;;;;;11.15;7.88;;;;;;;14.30;100.00;101550.03;5212962;28;20459;-69
2022/08/27 05:45:40;;;;;;;13.82;7.70;;;;;;;14.30;100.00;101547.34;5211996;28;20079;-69
2022/08/27 05:48:14;;;;;;;13.80;8.05;;;;;;;14.34;100.00;101555.97;5209342;28;20062;-69
2022/08/27 05:50:45;;;;;;;11.63;7.80;;;;;;;14.40;100.00;101547.44;5213399;28;20045;-69
2022/08/27 05:53:17;;;;;;;13.98;7.95;;;;;;;14.44;100.00;101548.88;5213097;28;20034;-69
2022/08/27 05:55:48;;;;;;;12.65;7.80;;;;;;;14.52;100.00;101548.25;5208784;28;20442;-69
2022/08/27 06:01:09;;;;;;;12.30;8.45;;;;;;;14.64;100.00;101543.75;5214991;28;20069;-69
2022/08/27 06:03:41;;;;;;;12.98;8.45;;;;;;;14.72;100.00;101548.47;5214297;28;20049;-69
2022/08/27 06:06:12;;;;;;;13.07;8.20;;;;;;;14.79;100.00;101552.38;5225818;28;20078;-69
2022/08/27 06:08:44;;;;;;;11.90;8.18;;;;;;;14.92;100.00;101552.19;5212682;28;20022;-69
2022/08/27 06:11:18;;;;;;;14.07;8.27;;;;;;;14.92;100.00;101560.25;5214045;28;20061;-69
2022/08/27 06:13:49;;;;;;;13.40;8.48;;;;;;;14.94;100.00;101563.66;5213248;28;20036;-69
2022/08/27 06:16:21;;;;;;;14.73;7.95;;;;;;;15.00;100.00;101560.47;5214812;28;20041;-69
2022/08/27 06:18:53;;;;;;;11.02;8.23;;;;;;;15.05;100.00;101558.22;5214071;28;20030;-69
2022/08/27 06:21:25;;;;;;;16.17;8.57;;;;;;;15.15;100.00;101566.38;5214111;28;20030;-69
2022/08/27 06:23:56;;;;;;;13.60;8.13;;;;;;;15.07;100.00;101562.50;5211727;28;20033;-69
2022/08/27 06:26:28;;;;;;;14.55;8.40;;;;;;;15.11;100.00;101565.81;5213565;28;20028;-69
2022/08/27 06:29:04;;;;;;;14.30;8.52;;;;;;;15.16;100.00;101562.72;5203903;28;20046;-69
2022/08/27 06:31:36;;;;;;;12.55;8.52;;;;;;;15.10;100.00;101558.72;5214197;28;20088;-69
2022/08/27 06:34:09;;;;;;;14.20;8.52;;;;;;;15.06;100.00;101558.09;5214099;28;20101;-69
2022/08/27 06:36:41;;;;;;;16.00;9.20;;;;;;;15.12;100.00;101561.28;5213929;28;20485;-69
2022/08/27 06:39:14;;;;;;;13.00;8.25;;;;;;;15.21;100.00;101555.97;5210405;28;20025;-69
2022/08/27 06:41:45;;;;;;;12.77;8.70;;;;;;;15.24;100.00;101563.75;5214031;28;20026;-69
2022/08/27 06:44:17;;;;;;;12.80;7.88;;;;;;;15.31;100.00;101560.56;5213338;28;20040;-69
2022/08/27 06:46:49;;;;;;;11.60;8.65;;;;;;;15.40;100.00;101565.16;5213667;28;20033;-69
2022/08/27 06:49:20;;;;;;;14.05;9.20;;;;;;;15.52;100.00;101563.25;5213964;28;20049;-69
2022/08/27 06:51:51;;;;;;;14.20;8.23;;;;;;;15.61;100.00;101566.00;5209713;28;20331;-69
2022/08/27 06:54:22;;;;;;;12.98;8.15;;;;;;;15.62;100.00;101562.31;5212631;28;20025;-69
2022/08/27 06:56:57;;;;;;;13.32;8.32;;;;;;;15.68;100.00;101566.31;5209772;28;20468;-69
2022/08/27 06:59:28;;;;;;;12.40;8.73;;;;;;;15.76;100.00;101562.97;5212612;28;20384;-70
2022/08/27 07:02:00;;;;;;;11.13;7.72;;;;;;;15.91;100.00;101560.78;5208183;28;20083;-69
2022/08/27 07:04:31;;;;;;;11.30;7.57;;;;;;;15.89;100.00;101560.91;5219605;28;20107;-70
2022/08/27 07:07:03;;;;;;;13.38;7.63;;;;;;;15.89;100.00;101566.31;5212139;28;20037;-69
2022/08/27 07:09:34;;;;;;;10.77;7.20;;;;;;;16.00;100.00;101571.59;5217668;28;20065;-69
2022/08/27 07:12:06;;;;;;;11.25;7.20;;;;;;;16.16;100.00;101567.56;5208413;28;20411;-69
2022/08/27 07:14:37;;;;;;;14.20;6.35;;;;;;;16.16;100.00;101559.47;5213033;28;20045;-70
2022/08/27 07:17:09;;;;;;;10.85;6.20;;;;;;;16.26;100.00;101568.44;5212886;28;20664;-69
2022/08/27 07:19:40;;;;;;;12.35;6.90;;;;;;;16.40;100.00;101570.75;5212877;28;20030;-69
2022/08/27 07:22:11;;;;;;;11.65;6.15;;;;;;;16.46;100.00;101577.44;5224649;28;20022;-69
2022/08/27 07:24:43;;;;;;;9.30;6.03;;;;;;;16.54;100.00;101576.75;5217234;28;20033;-69
2022/08/27 07:27:14;;;;;;;8.00;5.70;;;;;;;16.62;100.00;101568.81;5213432;28;20108;-70
2022/08/27 07:29:46;;;;;;;9.80;6.22;;;;;;;16.67;100.00;101580.03;5207039;28;20047;-70
2022/08/27 07:32:17;;;;;;;8.65;5.45;;;;;;;16.88;100.00;101574.56;5210747;28;20396;-70
2022/08/27 07:34:48;;;;;;;11.73;6.03;;;;;;;16.81;100.00;101579.59;5235404;28;20033;-70
2022/08/27 07:37:21;;;;;;;10.23;5.53;;;;;;;16.96;100.00;101582.78;5210007;28;20033;-70
2022/08/27 07:39:52;;;;;;;10.38;5.10;;;;;;;17.02;100.00;101587.59;5212552;28;20030;-70
2022/08/27 07:45:13;;;;;;;7.72;4.63;;;;;;;17.04;100.00;101580.22;5210203;28;20486;-70
2022/08/27 07:47:45;;;;;;;10.52;4.43;;;;;;;17.08;100.00;101583.50;5212359;28;20046;-70
2022/08/27 07:50:16;;;;;;;8.30;4.38;;;;;;;17.07;100.00;101586.31;5212990;28;20102;-70
2022/08/27 07:52:51;;;;;;;8.38;4.88;;;;;;;16.98;100.00;101590.72;5211142;28;20033;-70
2022/08/27 07:55:22;;;;;;;7.95;4.70;;;;;;;17.13;100.00;101597.41;5208405;28;20026;-70
2022/08/27 07:57:54;;;;;;;7.55;4.68;;;;;;;17.17;100.00;101590.72;5212773;28;20472;-70
2022/08/27 08:00:27;;;;;;;8.68;4.90;;;;;;;17.29;100.00;101587.91;5212163;28;20022;-69
2022/08/27 08:02:59;;;;;;;7.65;4.70;;;;;;;17.31;100.00;101589.44;5201334;28;20472;-70
2022/08/27 08:05:30;;;;;;;10.45;5.00;;;;;;;17.38;100.00;101593.28;5211740;28;20105;-70
2022/08/27 08:08:02;;;;;;;8.80;4.60;;;;;;;17.56;100.00;101593.38;5206268;28;20032;-69
2022/08/27 08:10:38;;;;;;;7.15;3.95;;;;;;;17.63;100.00;101586.41;5214135;28;20471;-69
2022/08/27 08:13:09;;;;;;;7.90;4.20;;;;;;;17.76;97.93;101594.22;5205443;28;20610;-70
2022/08/27 08:15:43;;;;;;;7.78;4.20;;;;;;;17.85;96.70;101595.19;5212349;28;20124;-70
2022/08/27 08:18:14;;;;;;;8.55;4.00;;;;;;;17.83;96.62;101592.63;5211300;28;20032;-70
2022/08/27 08:20:46;;;;;;;10.30;4.22;;;;;;;17.75;97.16;101586.25;5213117;28;20105;-70
2022/08/27 08:23:18;;;;;;;7.72;3.75;;;;;;;17.78;93.90;101594.06;5206916;28;20022;-70
2022/08/27 08:25:49;;;;;;;7.95;3.47;;;;;;;17.87;94.99;101597.75;5212098;28;20030;-70
2022/08/27 08:28:20;;;;;;;6.60;3.67;;;;;;;17.76;92.44;101596.06;5209816;28;20068;-70
2022/08/27 08:30:53;;;;;;;9.85;3.85;;;;;;;17.96;94.75;101599.56;5208638;28;20021;-70
2022/08/27 08:33:26;;;;;;;6.78;3.80;;;;;;;18.03;91.55;101615.03;5209569;28;20034;-70
2022/08/27 08:36:11;;;;;;;6.67;3.70;;;;;;;18.03;89.91;101606.94;5213557;28;20026;-69
2022/08/27 08:38:43;;;;;;;8.63;3.45;;;;;;;18.15;92.18;101607.59;5209048;28;20053;-69
2022/08/27 08:41:27;;;;;;;6.78;4.03;;;;;;;18.19;92.96;101605.44;5211529;28;20033;-70
2022/08/27 08:44:07;;;;;;;7.70;4.00;;;;;;;18.28;90.32;101607.28;5210202;28;20162;-70
2022/08/27 08:46:47;;;;;;;9.98;4.30;;;;;;;18.48;91.29;101601.75;5234339;28;20485;-70
2022/08/27 08:49:54;;;;;;;8.30;3.67;;;;;;;18.48;89.85;101602.59;5208429;28;20128;-70
2022/08/27 08:52:37;;;;;;;6.57;3.58;;;;;;;18.55;88.53;101597.47;5202725;28;20038;-69
2022/08/27 08:55:31;;;;;;;5.87;3.60;;;;;;;18.50;88.94;101597.06;5202429;28;20083;-70
2022/08/27 08:58:38;;;;;;;6.53;3.60;;;;;;;18.74;89.50;101602.75;5207910;28;20036;-69
2022/08/27 09:01:12;;;;;;;7.68;3.25;;;;;;;18.92;89.70;101605.47;5206118;28;20045;-70
2022/08/27 09:03:51;;;;;;;5.68;3.17;;;;;;;19.12;84.98;101602.63;5208820;28;20083;-70
2022/08/27 09:06:44;;;;;;;7.57;3.40;;;;;;;19.30;86.64;101602.63;5207941;28;20383;-70
2022/08/27 09:09:21;;;;;;;5.40;2.47;;;;;;;19.47;79.93;101603.63;5209303;28;20062;-69
2022/08/27 09:12:17;;;;;;;10.32;3.22;;;;;;;19.82;81.58;101600.00;5211365;28;20671;-69
2022/08/27 09:14:57;;;;;;;8.18;2.40;;;;;;;19.96;78.36;101609.38;5208953;28;20036;-69
2022/08/27 09:17:28;;;;;;;5.13;1.65;;;;;;;19.88;70.74;101607.47;5211150;28;20616;-69
2022/08/27 09:20:00;;;;;;;3.92;1.50;;;;;;;20.05;71.68;101605.72;5203728;28;20035;-69
2022/08/27 09:22:56;;;;;;;3.95;1.40;;;;;;;20.12;72.19;101608.66;5205352;28;20030;-69
2022/08/27 09:25:32;;;;;;;5.25;1.50;;;;;;;20.14;69.80;101615.59;5204026;28;20074;-69
2022/08/27 09:31:27;;;;;;;4.05;1.48;;;;;;;20.05;69.06;101605.72;5208428;28;20041;-70
2022/08/27 09:33:58;;;;;;;5.18;1.65;;;;;;;20.28;70.01;101605.16;5209673;28;20563;-69
2022/08/27 09:36:30;;;;;;;6.45;1.80;;;;;;;20.40;68.64;101606.53;5206776;28;20055;-69
2022/08/27 09:39:05;;;;;;;4.40;1.63;;;;;;;20.28;67.24;101613.28;5210006;28;20042;-69
2022/08/27 09:41:42;;;;;;;3.60;1.42;;;;;;;20.24;68.34;101610.03;5211045;28;20039;-69
2022/08/27 09:44:17;;;;;;;3.83;1.60;;;;;;;20.14;69.78;101612.88;5209376;28;20030;-69
2022/08/27 09:46:57;;;;;;;7.80;1.92;;;;;;;20.02;70.59;101606.06;5209552;28;20022;-69
2022/08/27 09:49:30;;;;;;;5.65;1.88;;;;;;;20.08;70.75;101610.81;5211343;28;20536;-69
2022/08/27 09:52:01;;;;;;;6.53;1.67;;;;;;;20.00;69.79;101608.06;5208782;28;20034;-70
2022/08/27 09:54:40;;;;;;;7.72;2.03;;;;;;;20.01;71.00;101611.63;5208488;28;20393;-69
2022/08/27 09:57:25;;;;;;;5.35;1.80;;;;;;;19.94;69.91;101612.28;5225840;28;20030;-69
2022/08/27 09:59:56;;;;;;;3.53;1.40;;;;;;;19.92;70.01;101618.84;5209464;28;20569;-69
2022/08/27 10:02:27;;;;;;;5.00;1.60;;;;;;;19.97;70.33;101611.94;5210090;28;20040;-69
2022/08/27 10:05:12;;;;;;;4.75;1.73;;;;;;;20.24;69.67;101618.19;5206248;28;20048;-69
2022/08/27 10:07:55;;;;;;;4.55;1.80;;;;;;;20.30;71.28;101616.69;5210027;28;20484;-69
2022/08/27 10:10:40;;;;;;;5.03;1.70;;;;;;;20.33;69.95;101617.22;5203506;28;20129;-69
2022/08/27 10:13:26;;;;;;;7.38;1.75;;;;;;;20.45;70.32;101615.06;5209406;28;20137;-69
2022/08/27 10:16:16;;;;;;;5.25;1.83;;;;;;;20.43;67.83;101610.81;5209202;28;20108;-69
2022/08/27 10:19:12;;;;;;;6.65;1.95;;;;;;;20.53;70.23;101604.22;5211067;28;20034;-69
2022/08/27 10:21:43;;;;;;;5.00;1.90;;;;;;;20.70;66.78;101596.19;5203689;28;20410;-69
2022/08/27 10:24:37;;;;;;;5.13;1.97;;;;;;;20.83;68.94;101601.97;5200429;28;20027;-69
2022/08/27 10:27:38;;;;;;;4.25;1.65;;;;;;;20.88;66.56;101602.34;5195879;28;20872;-69
2022/08/27 10:30:14;;;;;;;3.67;1.58;;;;;;;21.06;67.48;101604.06;5203941;28;20050;-70
2022/08/27 10:32:51;;;;;;;6.15;1.70;;;;;;;21.31;66.98;101604.91;5222492;28;20030;-69
2022/08/27 10:35:27;;;;;;;4.32;1.58;;;;;;;21.25;66.61;101601.00;5213174;28;20029;-70
2022/08/27 10:38:04;;;;;;;4.43;1.98;;;;;;;21.05;64.31;101599.63;5209622;28;20022;-70
2022/08/27 10:40:50;;;;;;;4.55;1.60;;;;;;;21.08;66.25;101596.59;5212075;28;20049;-70
2022/08/27 10:43:42;;;;;;;5.80;2.10;;;;;;;21.20;69.39;101591.69;5214381;28;20072;-70
2022/08/27 10:46:44;;;;;;;6.40;2.28;;;;;;;21.04;65.93;101598.78;5208333;28;20468;-70
2022/08/27 10:49:38;;;;;;;5.20;1.92;;;;;;;21.15;67.69;101594.88;5210508;28;20534;-70
2022/08/27 10:52:20;;;;;;;;;;;;;;;21.26;69.57;101597.25;5211349;28;20120;-70
2022/08/27 10:54:53;;;;;;;5.78;2.30;;;;;;;21.02;65.00;101594.56;5220112;28;19917;-70
2022/08/27 10:57:50;;;;;;;4.50;1.63;;;;;;;21.20;68.54;101594.41;5214299;28;20062;-70
2022/08/27 11:00:27;;;;;;;4.45;1.77;;;;;;;21.02;65.22;101600.84;5206266;28;20432;-69
2022/08/27 11:03:08;;;;;;;8.43;1.98;;;;;;;21.10;63.87;101592.69;5212120;28;20379;-70
2022/08/27 11:05:44;;;;;;;5.53;1.90;;;;;;;21.15;65.61;101594.88;5200717;28;20030;-70
2022/08/27 11:08:24;;;;;;;7.53;1.92;;;;;;;21.19;65.31;101593.56;5212660;28;20022;-70
2022/08/27 11:11:10;;;;;;;4.55;2.05;;;;;;;21.31;64.35;101602.22;5210991;28;20452;-70
2022/08/27 11:13:50;;;;;;;6.35;1.40;;;;;;;21.21;63.13;101594.22;5206142;28;20094;-70
2022/08/27 11:16:46;;;;;;;4.28;1.58;;;;;;;21.42;65.49;101588.28;5210251;28;20037;-70
2022/08/27 11:19:26;;;;;;;7.55;1.73;;;;;;;21.58;65.62;101583.91;5213221;28;20030;-70
2022/08/27 11:22:14;;;;;;;5.43;1.60;;;;;;;21.56;65.95;101583.22;5212713;28;20036;-70
2022/08/27 11:24:59;;;;;;;4.05;1.63;;;;;;;21.56;63.45;101586.78;5205852;28;20456;-70
2022/08/27 11:27:33;;;;;;;3.67;1.38;;;;;;;21.51;62.79;101581.84;5211039;28;20534;-70
2022/08/27 11:30:23;;;;;;;6.40;1.75;;;;;;;21.76;63.26;101586.41;5208796;28;20409;-70
2022/08/27 11:33:06;;;;;;;4.80;1.42;;;;;;;21.74;63.61;101579.25;5209950;28;20025;-70
2022/08/27 11:35:56;;;;;;;4.18;1.50;;;;;;;21.84;62.28;101579.09;5210477;28;20026;-70
2022/08/27 11:38:52;;;;;;;4.78;1.33;;;;;;;21.75;63.85;101580.13;5206723;28;20026;-70
2022/08/27 11:41:41;;;;;;;4.65;1.38;;;;;;;21.96;62.32;101582.28;5201111;28;20472;-70
2022/08/27 11:44:14;;;;;;;4.63;1.40;;;;;;;21.83;62.13;101579.25;5211666;28;20511;-70
2022/08/27 11:46:50;;;;;;;4.67;1.40;;;;;;;21.87;61.36;101577.88;5213070;28;20041;-70
2022/08/27 11:49:36;;;;;;;6.72;1.40;;;;;;;21.96;61.55;101585.00;5206674;28;20061;-70
2022/08/27 11:52:08;;;;;;;4.15;1.33;;;;;;;22.18;60.55;101577.09;5207024;28;20161;-70
2022/08/27 11:54:54;;;;;;;4.03;1.25;;;;;;;22.02;59.73;101576.13;5210924;28;20159;-70
2022/08/27 11:57:33;;;;;;;4.50;1.23;;;;;;;21.95;60.33;101590.59;5209067;28;20029;-70
2022/08/27 12:00:19;;;;;;;4.22;1.50;;;;;;;21.93;60.89;101582.63;5213789;28;20400;-70
2022/08/27 12:02:59;;;;;;;4.20;1.33;;;;;;;21.99;62.11;101579.19;5207573;28;20033;-70